createdAt,value
2018-09-05T00:00:58.415Z,43.60
2018-09-05T00:01:58.423Z,43.20
2018-09-05T00:02:58.433Z,41.90
2018-09-05T00:03:58.430Z,42.90
2018-09-05T00:04:58.457Z,42.10
2018-09-05T00:05:58.431Z,44.40
2018-09-05T00:06:58.420Z,41.90
2018-09-05T00:07:58.455Z,42.10
2018-09-05T00:08:58.456Z,42.20
2018-09-05T00:09:58.437Z,43.00
2018-09-05T00:10:58.447Z,41.40
2018-09-05T00:11:58.437Z,43.10
2018-09-05T00:12:58.453Z,40.70
2018-09-05T00:13:58.463Z,40.40
2018-09-05T00:14:59.135Z,40.70
2018-09-05T00:15:58.445Z,41.20
2018-09-05T00:16:58.472Z,42.50
2018-09-05T00:17:58.455Z,40.60
2018-09-05T00:18:58.466Z,41.40
2018-09-05T00:19:58.451Z,39.90
2018-09-05T00:20:58.474Z,41.30
2018-09-05T00:21:58.474Z,40.50
2018-09-05T00:22:58.460Z,39.90
2018-09-05T00:23:58.467Z,40.00
2018-09-05T00:24:58.471Z,41.40
2018-09-05T00:25:58.483Z,40.40
2018-09-05T00:26:58.479Z,40.90
2018-09-05T00:27:59.135Z,41.20
2018-09-05T00:28:58.506Z,39.30
2018-09-05T00:29:58.496Z,40.90
2018-09-05T00:30:58.495Z,42.50
2018-09-05T00:31:58.490Z,41.30
2018-09-05T00:32:58.504Z,40.90
2018-09-05T00:33:58.500Z,40.60
2018-09-05T00:34:58.500Z,39.20
2018-09-05T00:35:58.505Z,41.40
2018-09-05T00:36:58.520Z,41.50
2018-09-05T00:37:58.519Z,42.40
2018-09-05T00:38:58.495Z,40.50
2018-09-05T00:39:58.504Z,39.30
2018-09-05T00:40:58.602Z,38.90
2018-09-05T00:41:58.561Z,40.20
2018-09-05T00:42:58.511Z,38.40
2018-09-05T00:43:58.532Z,37.60
2018-09-05T00:44:58.514Z,36.40
2018-09-05T00:45:58.528Z,37.90
2018-09-05T00:46:58.519Z,37.10
2018-09-05T00:47:58.523Z,38.70
2018-09-05T00:48:58.534Z,38.10
2018-09-05T00:49:58.528Z,38.00
2018-09-05T00:50:58.541Z,37.20
2018-09-05T00:51:58.569Z,37.60
2018-09-05T00:52:58.567Z,36.90
2018-09-05T00:53:58.565Z,38.90
2018-09-05T00:54:58.547Z,38.80
2018-09-05T00:55:58.560Z,37.80
2018-09-05T00:56:58.555Z,38.70
2018-09-05T00:57:58.556Z,40.90
2018-09-05T00:58:58.650Z,40.30
2018-09-05T00:59:58.557Z,37.70
2018-09-05T01:00:58.588Z,40.40
2018-09-05T01:01:58.622Z,39.50
2018-09-05T01:02:58.570Z,39.40
2018-09-05T01:03:58.581Z,39.60
2018-09-05T01:04:58.580Z,38.80
2018-09-05T01:05:58.565Z,39.90
2018-09-05T01:06:58.578Z,41.10
2018-09-05T01:07:58.568Z,40.50
2018-09-05T01:08:58.568Z,39.40
2018-09-05T01:09:58.565Z,40.20
2018-09-05T01:10:58.635Z,39.70
2018-09-05T01:11:58.580Z,39.00
2018-09-05T01:12:58.582Z,39.30
2018-09-05T01:13:58.671Z,41.50
2018-09-05T01:14:58.610Z,41.30
2018-09-05T01:15:58.610Z,41.20
2018-09-05T01:16:58.608Z,38.90
2018-09-05T01:17:58.624Z,39.80
2018-09-05T01:18:58.599Z,40.00
2018-09-05T01:19:58.603Z,39.00
2018-09-05T01:20:58.607Z,39.10
2018-09-05T01:21:59.167Z,37.70
2018-09-05T01:22:58.606Z,37.10
2018-09-05T01:23:58.612Z,35.90
2018-09-05T01:24:58.642Z,36.40
2018-09-05T01:25:58.643Z,37.90
2018-09-05T01:26:58.611Z,36.30
2018-09-05T01:27:58.618Z,36.30
2018-09-05T01:28:58.620Z,36.30
2018-09-05T01:29:58.626Z,36.10
2018-09-05T01:30:58.632Z,36.90
2018-09-05T01:31:58.629Z,36.30
2018-09-05T01:32:58.652Z,36.90
2018-09-05T01:33:58.680Z,36.30
2018-09-05T01:34:58.790Z,35.00
2018-09-05T01:35:58.644Z,36.40
2018-09-05T01:36:58.668Z,36.90
2018-09-05T01:37:58.649Z,36.40
2018-09-05T01:38:58.656Z,36.10
2018-09-05T01:39:58.670Z,37.20
2018-09-05T01:40:58.688Z,37.00
2018-09-05T01:41:58.656Z,37.60
2018-09-05T01:42:58.663Z,37.90
2018-09-05T01:43:58.664Z,38.50
2018-09-05T01:44:58.656Z,37.00
2018-09-05T01:45:58.688Z,37.20
2018-09-05T01:46:58.668Z,37.50
2018-09-05T01:47:58.677Z,37.60
2018-09-05T01:48:58.680Z,38.00
2018-09-05T01:49:58.686Z,37.60
2018-09-05T01:50:58.676Z,37.60
2018-09-05T01:51:58.690Z,36.70
2018-09-05T01:52:58.794Z,38.60
2018-09-05T01:53:58.699Z,38.10
2018-09-05T01:54:58.677Z,38.80
2018-09-05T01:55:58.695Z,38.60
2018-09-05T01:56:58.683Z,39.40
2018-09-05T01:57:58.688Z,38.60
2018-09-05T01:58:58.694Z,38.70
2018-09-05T01:59:58.715Z,39.30
2018-09-05T02:00:58.714Z,38.90
2018-09-05T02:01:58.699Z,38.70
2018-09-05T02:02:58.717Z,38.60
2018-09-05T02:03:58.709Z,37.40
2018-09-05T02:04:58.706Z,39.50
2018-09-05T02:05:58.796Z,40.40
2018-09-05T02:06:59.174Z,38.40
2018-09-05T02:07:58.713Z,39.40
2018-09-05T02:08:58.725Z,39.60
2018-09-05T02:09:58.760Z,37.70
2018-09-05T02:10:58.715Z,38.00
2018-09-05T02:11:58.723Z,39.20
2018-09-05T02:12:58.737Z,37.60
2018-09-05T02:13:58.734Z,38.60
2018-09-05T02:14:58.757Z,38.40
2018-09-05T02:15:58.750Z,38.80
2018-09-05T02:16:58.746Z,38.80
2018-09-05T02:17:58.735Z,39.70
2018-09-05T02:26:09.599Z,39.20
2018-09-05T02:27:08.615Z,39.90
2018-09-05T02:28:06.601Z,40.00
2018-09-05T02:29:04.099Z,39.40
2018-09-05T02:30:04.102Z,40.60
2018-09-05T02:31:04.102Z,40.40
2018-09-05T02:32:03.334Z,40.00
2018-09-05T02:33:03.391Z,39.30
2018-09-05T02:34:03.308Z,41.60
2018-09-05T02:35:03.312Z,39.50
2018-09-05T02:36:03.330Z,39.20
2018-09-05T02:37:03.314Z,40.20
2018-09-05T02:38:03.325Z,40.80
2018-09-05T02:39:03.338Z,41.70
2018-09-05T02:40:03.341Z,41.20
2018-09-05T02:41:03.332Z,40.50
2018-09-05T02:42:03.337Z,41.10
2018-09-05T02:43:03.326Z,41.20
2018-09-05T02:44:04.099Z,40.90
2018-09-05T02:45:03.341Z,41.70
2018-09-05T02:46:03.354Z,42.10
2018-09-05T02:47:04.098Z,41.40
2018-09-05T02:48:03.450Z,41.50
2018-09-05T02:49:03.345Z,41.90
2018-09-05T02:50:03.401Z,40.90
2018-09-05T02:51:03.358Z,41.30
2018-09-05T02:52:03.362Z,39.70
2018-09-05T02:53:03.414Z,41.90
2018-09-05T02:54:03.356Z,40.60
2018-09-05T02:55:03.381Z,42.30
2018-09-05T02:56:03.375Z,41.70
2018-09-05T02:57:03.364Z,40.40
2018-09-05T02:58:03.403Z,41.10
2018-09-05T02:59:03.367Z,41.10
2018-09-05T03:00:03.373Z,39.90
2018-09-05T03:01:03.436Z,42.00
2018-09-05T03:02:03.390Z,41.70
2018-09-05T03:03:03.384Z,40.90
2018-09-05T03:04:03.380Z,41.30
2018-09-05T03:05:03.384Z,42.40
2018-09-05T03:06:03.400Z,42.20
2018-09-05T03:07:03.383Z,41.90
2018-09-05T03:08:03.392Z,41.70
2018-09-05T03:09:03.394Z,40.00
2018-09-05T03:10:03.397Z,41.10
2018-09-05T03:11:03.394Z,40.90
2018-09-05T03:12:03.402Z,40.40
2018-09-05T03:13:03.407Z,40.60
2018-09-05T03:14:03.406Z,42.80
2018-09-05T03:15:03.399Z,41.40
2018-09-05T03:16:03.414Z,41.00
2018-09-05T03:17:03.413Z,40.20
2018-09-05T03:18:03.414Z,38.80
2018-09-05T03:19:04.109Z,40.40
2018-09-05T03:20:03.421Z,40.20
2018-09-05T03:21:03.418Z,41.70
2018-09-05T03:22:03.421Z,42.20
2018-09-05T03:23:03.434Z,41.90
2018-09-05T03:24:03.437Z,42.30
2018-09-05T03:25:03.420Z,41.80
2018-09-05T03:26:03.433Z,40.60
2018-09-05T03:27:03.437Z,41.90
2018-09-05T03:28:03.478Z,41.50
2018-09-05T03:29:03.430Z,42.30
2018-09-05T03:30:03.459Z,41.60
2018-09-05T03:31:03.446Z,41.40
2018-09-05T03:32:03.474Z,40.80
2018-09-05T03:33:03.486Z,42.70
2018-09-05T03:34:03.447Z,41.10
2018-09-05T03:35:03.453Z,41.80
2018-09-05T03:36:03.458Z,42.60
2018-09-05T03:37:03.461Z,41.10
2018-09-05T03:38:03.554Z,41.70
2018-09-05T03:39:03.459Z,42.40
2018-09-05T03:40:03.460Z,40.50
2018-09-05T03:41:03.468Z,42.00
2018-09-05T03:42:03.452Z,41.60
2018-09-05T03:43:03.473Z,43.40
2018-09-05T03:44:03.506Z,42.00
2018-09-05T03:45:03.640Z,42.20
2018-09-05T03:46:03.474Z,43.10
2018-09-05T03:47:03.502Z,41.90
2018-09-05T03:48:03.479Z,43.00
2018-09-05T03:49:03.499Z,43.00
2018-09-05T03:50:03.479Z,43.10
2018-09-05T03:51:03.480Z,44.20
2018-09-05T03:52:03.491Z,42.40
2018-09-05T03:53:03.488Z,43.30
2018-09-05T03:54:03.483Z,40.60
2018-09-05T03:55:03.670Z,41.60
2018-09-05T03:56:03.515Z,43.90
2018-09-05T03:57:03.494Z,43.00
2018-09-05T03:58:03.528Z,43.90
2018-09-05T03:59:03.530Z,42.50
2018-09-05T04:00:03.516Z,44.80
2018-09-05T04:01:03.509Z,44.40
2018-09-05T04:02:03.517Z,44.40
2018-09-05T04:03:03.506Z,42.00
2018-09-05T04:04:03.521Z,42.30
2018-09-05T04:05:03.549Z,44.20
2018-09-05T04:06:03.516Z,42.80
2018-09-05T04:07:03.509Z,45.10
2018-09-05T04:08:03.605Z,43.20
2018-09-05T04:09:03.515Z,44.90
2018-09-05T04:10:03.530Z,44.10
2018-09-05T04:11:03.522Z,44.80
2018-09-05T04:12:03.532Z,44.30
2018-09-05T04:13:03.622Z,44.70
2018-09-05T04:14:03.547Z,44.40
2018-09-05T04:15:03.537Z,46.00
2018-09-05T04:16:03.543Z,45.40
2018-09-05T04:17:03.554Z,43.00
2018-09-05T04:18:03.540Z,44.40
2018-09-05T04:19:03.541Z,44.30
2018-09-05T04:20:03.553Z,45.40
2018-09-05T04:21:03.540Z,45.50
2018-09-05T04:22:03.599Z,45.90
2018-09-05T04:23:03.583Z,45.80
2018-09-05T04:24:03.595Z,45.70
2018-09-05T04:25:03.560Z,48.40
2018-09-05T04:26:04.139Z,47.70
2018-09-05T04:27:03.566Z,48.50
2018-09-05T04:28:03.598Z,48.10
2018-09-05T04:29:03.569Z,49.00
2018-09-05T04:30:03.595Z,49.40
2018-09-05T04:31:03.570Z,49.90
2018-09-05T04:32:03.590Z,51.80
2018-09-05T04:33:03.569Z,50.30
2018-09-05T04:34:03.572Z,50.00
2018-09-05T04:35:03.615Z,51.50
2018-09-05T04:36:03.582Z,50.70
2018-09-05T04:37:03.594Z,51.30
2018-09-05T04:38:03.588Z,54.30
2018-09-05T04:39:03.638Z,52.80
2018-09-05T04:40:03.592Z,54.20
2018-09-05T04:41:03.595Z,54.40
2018-09-05T04:42:03.588Z,55.40
2018-09-05T04:43:03.617Z,55.90
2018-09-05T04:44:03.589Z,54.90
2018-09-05T04:45:03.634Z,55.70
2018-09-05T04:46:03.617Z,54.70
2018-09-05T04:47:03.616Z,55.60
2018-09-05T04:48:03.622Z,55.10
2018-09-05T04:49:04.150Z,55.30
2018-09-05T04:50:03.615Z,55.40
2018-09-05T04:51:03.607Z,54.10
2018-09-05T04:52:03.632Z,56.20
2018-09-05T04:53:03.605Z,54.90
2018-09-05T04:54:03.615Z,54.50
2018-09-05T04:55:03.617Z,57.40
2018-09-05T04:56:03.636Z,54.90
2018-09-05T04:57:03.628Z,55.70
2018-09-05T04:58:03.622Z,56.80
2018-09-05T04:59:03.635Z,53.40
2018-09-05T05:00:03.686Z,54.70
2018-09-05T05:01:03.631Z,54.60
2018-09-05T05:02:03.639Z,52.60
2018-09-05T05:03:03.666Z,54.10
2018-09-05T05:04:03.658Z,53.70
2018-09-05T05:05:03.685Z,52.90
2018-09-05T05:06:03.655Z,53.60
2018-09-05T05:07:03.649Z,54.50
2018-09-05T05:08:03.670Z,53.60
2018-09-05T05:09:03.644Z,52.40
2018-09-05T05:10:03.664Z,53.70
2018-09-05T05:11:03.660Z,54.10
2018-09-05T05:12:03.656Z,51.30
2018-09-05T05:13:03.647Z,52.70
2018-09-05T05:14:03.659Z,51.10
2018-09-05T05:15:03.704Z,51.80
2018-09-05T05:16:03.672Z,53.60
2018-09-05T05:17:03.669Z,50.70
2018-09-05T05:18:03.677Z,50.00
2018-09-05T05:19:03.676Z,50.10
2018-09-05T05:20:03.665Z,49.60
2018-09-05T05:21:03.697Z,48.70
2018-09-05T05:22:03.698Z,48.50
2018-09-05T05:23:03.700Z,46.90
2018-09-05T05:24:03.687Z,46.80
2018-09-05T05:25:03.756Z,47.70
2018-09-05T05:26:03.688Z,45.30
2018-09-05T05:27:03.700Z,44.10
2018-09-05T05:28:03.695Z,43.10
2018-09-05T05:29:03.711Z,43.50
2018-09-05T05:30:03.751Z,42.10
2018-09-05T05:31:03.713Z,45.00
2018-09-05T05:32:03.741Z,42.90
2018-09-05T05:33:03.697Z,42.60
2018-09-05T05:34:03.754Z,40.90
2018-09-05T05:35:03.754Z,41.90
2018-09-05T05:36:03.715Z,41.40
2018-09-05T05:37:03.721Z,40.50
2018-09-05T05:38:03.743Z,41.30
2018-09-05T05:39:03.707Z,41.60
2018-09-05T05:40:03.761Z,40.90
2018-09-05T05:41:03.722Z,40.80
2018-09-05T05:42:03.724Z,39.40
2018-09-05T05:43:03.735Z,39.90
2018-09-05T05:44:03.751Z,38.80
2018-09-05T05:45:03.727Z,39.00
2018-09-05T05:46:03.788Z,38.60
2018-09-05T05:47:03.763Z,40.60
2018-09-05T05:48:03.738Z,37.80
2018-09-05T05:49:03.767Z,38.40
2018-09-05T05:50:04.677Z,36.20
2018-09-05T05:51:03.751Z,35.30
2018-09-05T05:52:03.751Z,34.20
2018-09-05T05:53:03.738Z,34.20
2018-09-05T05:54:03.748Z,33.90
2018-09-05T05:55:03.951Z,35.20
2018-09-05T05:56:03.759Z,33.70
2018-09-05T05:57:03.758Z,33.50
2018-09-05T05:58:03.755Z,33.80
2018-09-05T05:59:03.758Z,32.60
2018-09-05T06:00:03.761Z,31.80
2018-09-05T06:01:03.854Z,32.60
2018-09-05T06:02:03.792Z,34.10
2018-09-05T06:03:03.771Z,32.80
2018-09-05T06:04:03.801Z,32.70
2018-09-05T06:05:03.813Z,31.60
2018-09-05T06:06:03.843Z,32.50
2018-09-05T06:07:03.805Z,32.10
2018-09-05T06:08:03.789Z,32.20
2018-09-05T06:09:03.790Z,31.10
2018-09-05T06:10:03.827Z,31.70
2018-09-05T06:11:03.833Z,31.20
2018-09-05T06:12:03.800Z,31.10
2018-09-05T06:13:03.803Z,31.30
2018-09-05T06:14:04.688Z,31.50
2018-09-05T06:15:03.810Z,29.80
2018-09-05T06:16:04.791Z,31.30
2018-09-05T06:17:03.842Z,29.60
2018-09-05T06:18:03.923Z,28.10
2018-09-05T06:19:03.828Z,29.20
2018-09-05T06:20:03.936Z,31.00
2018-09-05T06:21:03.924Z,28.60
2018-09-05T06:22:03.862Z,29.50
2018-09-05T06:23:03.884Z,29.20
2018-09-05T06:24:03.905Z,29.50
2018-09-05T06:25:03.851Z,28.90
2018-09-05T06:26:03.865Z,27.10
2018-09-05T06:27:03.948Z,27.20
2018-09-05T06:28:03.897Z,26.30
2018-09-05T06:29:03.859Z,27.60
2018-09-05T06:30:03.991Z,27.40
2018-09-05T06:31:04.035Z,26.50
2018-09-05T06:32:03.984Z,26.20
2018-09-05T06:33:03.880Z,27.10
2018-09-05T06:34:03.906Z,27.10
2018-09-05T06:35:03.890Z,26.50
2018-09-05T06:36:03.903Z,25.70
2018-09-05T06:37:03.897Z,25.50
2018-09-05T06:38:03.943Z,25.50
2018-09-05T06:39:03.986Z,25.10
2018-09-05T06:40:03.928Z,24.40
2018-09-05T06:41:03.938Z,24.90
2018-09-05T06:42:03.940Z,24.10
2018-09-05T06:43:03.942Z,23.70
2018-09-05T06:44:04.002Z,23.30
2018-09-05T06:45:03.989Z,23.50
2018-09-05T06:46:04.011Z,23.90
2018-09-05T06:47:03.954Z,23.50
2018-09-05T06:48:04.034Z,24.00
2018-09-05T06:49:03.975Z,23.20
2018-09-05T06:50:04.116Z,24.90
2018-09-05T06:51:04.067Z,23.40
2018-09-05T06:52:04.018Z,23.90
2018-09-05T06:53:04.011Z,23.80
2018-09-05T06:54:04.075Z,27.30
2018-09-05T06:55:04.707Z,24.20
2018-09-05T06:56:04.059Z,23.50
2018-09-05T06:57:04.042Z,23.20
2018-09-05T06:58:04.086Z,22.20
2018-09-05T06:59:04.075Z,22.20
2018-09-05T07:00:04.128Z,21.60
2018-09-05T07:01:04.392Z,22.70
2018-09-05T07:02:04.162Z,22.60
2018-09-05T07:03:04.156Z,22.50
2018-09-05T07:04:04.149Z,21.00
2018-09-05T07:05:04.713Z,21.90
2018-09-05T07:06:04.148Z,21.40
2018-09-05T07:07:04.227Z,21.00
2018-09-05T07:08:04.227Z,22.10
2018-09-05T07:09:04.135Z,21.20
2018-09-05T07:10:04.166Z,20.10
2018-09-05T07:11:04.147Z,19.80
2018-09-05T07:12:04.188Z,20.30
2018-09-05T07:13:04.192Z,21.20
2018-09-05T07:14:04.188Z,19.80
2018-09-05T07:15:04.183Z,21.10
2018-09-05T07:16:04.202Z,19.90
2018-09-05T07:17:04.210Z,20.00
2018-09-05T07:18:04.520Z,19.10
2018-09-05T07:19:04.326Z,19.50
2018-09-05T07:20:04.327Z,20.30
2018-09-05T07:21:07.175Z,19.70
2018-09-05T07:22:04.302Z,19.50
2018-09-05T07:23:04.252Z,20.00
2018-09-05T07:24:04.294Z,20.40
2018-09-05T07:25:04.382Z,19.60
2018-09-05T07:26:04.352Z,20.40
2018-09-05T07:27:04.306Z,18.60
2018-09-05T07:28:04.311Z,20.00
2018-09-05T07:29:04.364Z,19.60
2018-09-05T07:30:04.368Z,19.60
2018-09-05T07:32:58.465Z,18.50
2018-09-05T07:33:37.820Z,18.00
2018-09-05T07:34:36.637Z,19.50
2018-09-05T07:35:36.716Z,20.60
2018-09-05T07:36:36.617Z,18.40
2018-09-05T07:37:36.629Z,19.00
2018-09-05T07:38:37.390Z,19.20
2018-09-05T07:39:37.417Z,19.40
2018-09-05T07:40:36.780Z,19.10
2018-09-05T07:41:36.765Z,19.20
2018-09-05T07:42:36.719Z,19.60
2018-09-05T07:43:36.751Z,20.20
2018-09-05T07:44:36.728Z,18.70
2018-09-05T07:45:36.695Z,19.20
2018-09-05T07:46:37.405Z,19.60
2018-09-05T07:47:36.788Z,19.60
2018-09-05T07:48:36.898Z,19.50
2018-09-05T07:49:36.796Z,20.30
2018-09-05T07:50:36.812Z,19.50
2018-09-05T07:51:36.806Z,21.00
2018-09-05T07:52:36.849Z,20.40
2018-09-05T07:53:36.903Z,20.50
2018-09-05T07:54:36.828Z,20.50
2018-09-05T07:55:37.332Z,20.00
2018-09-05T07:56:36.995Z,19.00
2018-09-05T07:57:36.972Z,20.00
2018-09-05T07:58:36.879Z,19.70
2018-09-05T07:59:37.160Z,19.30
2018-09-05T08:00:36.902Z,20.20
2018-09-05T08:01:37.033Z,19.70
2018-09-05T08:02:37.169Z,18.80
2018-09-05T08:03:36.932Z,19.90
2018-09-05T08:04:36.908Z,19.80
2018-09-05T08:05:37.408Z,19.00
2018-09-05T08:06:36.995Z,18.60
2018-09-05T08:07:37.017Z,19.50
2018-09-05T08:08:37.020Z,18.90
2018-09-05T08:09:36.992Z,18.40
2018-09-05T08:10:37.183Z,18.70
2018-09-05T08:11:37.038Z,17.90
2018-09-05T08:12:37.033Z,19.40
2018-09-05T08:13:37.022Z,19.80
2018-09-05T08:14:37.073Z,19.70
2018-09-05T08:15:37.050Z,18.50
2018-09-05T08:16:37.100Z,19.70
2018-09-05T08:17:37.229Z,19.40
2018-09-05T08:18:37.424Z,19.90
2018-09-05T08:19:37.202Z,20.00
2018-09-05T08:21:37.146Z,20.60
2018-09-05T08:22:37.944Z,19.60
2018-09-05T08:23:37.666Z,20.10
2018-09-05T08:24:37.375Z,19.70
2018-09-05T08:25:37.249Z,19.90
2018-09-05T08:26:37.246Z,19.80
2018-09-05T08:27:37.255Z,20.40
2018-09-05T08:28:37.242Z,18.80
2018-09-05T08:29:37.262Z,17.60
2018-09-05T08:30:37.263Z,17.50
2018-09-05T08:31:37.287Z,19.90
2018-09-05T08:32:37.416Z,19.00
2018-09-05T08:33:37.320Z,18.70
2018-09-05T08:34:37.387Z,19.70
2018-09-05T08:35:37.534Z,21.00
2018-09-05T08:36:37.636Z,20.20
2018-09-05T08:37:38.120Z,20.30
2018-09-05T08:38:37.390Z,19.80
2018-09-05T08:39:37.359Z,20.30
2018-09-05T08:40:37.414Z,19.30
2018-09-05T08:41:37.401Z,19.70
2018-09-05T08:42:37.447Z,20.30
2018-09-05T08:43:37.624Z,19.00
2018-09-05T08:44:37.542Z,19.30
2018-09-05T08:45:37.803Z,21.50
2018-09-05T08:46:37.499Z,19.50
2018-09-05T08:47:37.592Z,19.30
2018-09-05T08:48:37.940Z,19.60
2018-09-05T08:49:37.560Z,18.40
2018-09-05T08:50:37.537Z,18.20
2018-09-05T08:51:37.566Z,18.10
2018-09-05T08:52:37.644Z,16.90
2018-09-05T08:53:37.610Z,17.60
2018-09-05T08:54:37.578Z,17.00
2018-09-05T08:55:37.654Z,15.70
2018-09-05T08:56:37.643Z,16.80
2018-09-05T08:57:37.742Z,16.60
2018-09-05T08:58:37.749Z,18.20
2018-09-05T08:59:37.712Z,17.10
2018-09-05T09:00:37.730Z,16.40
2018-09-05T09:01:37.709Z,17.00
2018-09-05T09:02:37.954Z,16.60
2018-09-05T09:03:37.758Z,15.90
2018-09-05T09:04:37.793Z,14.80
2018-09-05T09:05:37.778Z,14.90
2018-09-05T09:06:37.831Z,14.90
2018-09-05T09:07:37.788Z,14.30
2018-09-05T09:08:37.859Z,13.60
2018-09-05T09:09:38.451Z,14.70
2018-09-05T09:10:37.841Z,14.30
2018-09-05T09:11:37.921Z,14.40
2018-09-05T09:12:38.472Z,15.30
2018-09-05T09:13:38.032Z,15.20
2018-09-05T09:14:37.991Z,14.40
2018-09-05T09:15:37.948Z,15.70
2018-09-05T09:16:37.946Z,13.60
2018-09-05T09:17:37.964Z,13.80
2018-09-05T09:18:37.993Z,14.50
2018-09-05T09:19:38.037Z,14.10
2018-09-05T09:20:38.078Z,14.70
2018-09-05T09:21:38.079Z,15.70
2018-09-05T09:22:38.965Z,14.80
2018-09-05T09:23:38.090Z,14.20
2018-09-05T09:24:38.184Z,15.10
2018-09-05T09:25:38.114Z,15.60
2018-09-05T09:26:38.103Z,15.00
2018-09-05T09:27:38.205Z,14.00
2018-09-05T09:28:38.224Z,12.10
2018-09-05T09:29:38.184Z,12.60
2018-09-05T09:30:38.242Z,12.40
2018-09-05T09:31:38.261Z,12.40
2018-09-05T09:32:38.246Z,12.70
2018-09-05T09:33:38.248Z,11.40
2018-09-05T09:34:38.273Z,12.00
2018-09-05T09:35:38.367Z,11.70
2018-09-05T09:36:38.281Z,12.20
2018-09-05T09:37:38.301Z,12.90
2018-09-05T09:38:38.322Z,11.40
2018-09-05T09:39:38.388Z,11.50
2018-09-05T09:40:38.492Z,11.90
2018-09-05T09:41:38.430Z,11.70
2018-09-05T09:42:38.429Z,12.80
2018-09-05T09:43:38.564Z,12.50
2018-09-05T09:44:38.511Z,12.00
2018-09-05T09:45:38.492Z,12.00
2018-09-05T09:46:38.505Z,11.50
2018-09-05T09:47:38.474Z,12.80
2018-09-05T09:48:38.558Z,12.20
2018-09-05T09:49:38.558Z,11.10
2018-09-05T09:50:38.711Z,11.10
2018-09-05T09:51:38.875Z,10.70
2018-09-05T09:52:38.617Z,11.10
2018-09-05T09:53:38.644Z,11.00
2018-09-05T09:54:38.631Z,10.60
2018-09-05T09:55:38.659Z,11.50
2018-09-05T09:56:39.896Z,11.20
2018-09-05T09:57:38.731Z,11.60
2018-09-05T09:58:39.436Z,11.30
2018-09-05T09:59:39.741Z,11.60
2018-09-05T10:00:39.106Z,13.60
2018-09-05T10:01:38.770Z,13.70
2018-09-05T10:02:38.798Z,16.70
2018-09-05T10:03:38.985Z,13.60
2018-09-05T10:04:38.929Z,12.90
2018-09-05T10:05:38.907Z,12.60
2018-09-05T10:06:38.884Z,11.50
2018-09-05T10:07:38.883Z,11.10
2018-09-05T10:08:38.917Z,11.30
2018-09-05T10:09:38.951Z,10.50
2018-09-05T10:10:39.149Z,10.70
2018-09-05T10:11:39.028Z,10.40
2018-09-05T10:12:39.008Z,11.50
2018-09-05T10:13:39.006Z,10.50
2018-09-05T10:14:38.989Z,14.30
2018-09-05T10:15:39.053Z,10.50
2018-09-05T10:16:41.683Z,13.70
2018-09-05T10:17:39.129Z,15.90
2018-09-05T10:18:39.090Z,10.80
2018-09-05T10:19:39.128Z,11.30
2018-09-05T10:20:39.163Z,22.90
2018-09-05T10:21:39.192Z,13.20
2018-09-05T10:22:39.174Z,12.20
2018-09-05T10:23:39.203Z,11.70
2018-09-05T10:24:39.215Z,11.60
2018-09-05T10:25:39.265Z,112.60
2018-09-05T10:26:39.339Z,12.80
2018-09-05T10:27:39.756Z,12.30
2018-09-05T10:28:39.385Z,12.10
2018-09-05T10:29:39.518Z,11.80
2018-09-05T10:31:42.260Z,11.70
2018-09-05T10:32:39.361Z,12.20
2018-09-05T10:33:39.380Z,10.80
2018-09-05T10:34:39.383Z,10.40
2018-09-05T10:35:39.423Z,9.50
2018-09-05T10:36:39.422Z,9.00
2018-09-05T10:37:39.853Z,9.10
2018-09-05T10:38:39.586Z,9.60
2018-09-05T10:39:39.566Z,9.60
2018-09-05T10:40:39.494Z,10.20
2018-09-05T10:41:39.525Z,11.00
2018-09-05T10:42:40.529Z,9.10
2018-09-05T10:43:39.612Z,8.60
2018-09-05T10:44:39.585Z,10.90
2018-09-05T10:45:39.650Z,10.30
2018-09-05T10:46:42.463Z,10.80
2018-09-05T10:47:39.725Z,10.00
2018-09-05T10:48:40.025Z,9.40
2018-09-05T10:49:39.806Z,8.40
2018-09-05T10:50:39.774Z,10.00
2018-09-05T10:53:27.913Z,10.00
2018-09-05T10:54:12.838Z,9.20
2018-09-05T10:55:12.844Z,9.40
2018-09-05T10:56:12.878Z,11.00
2018-09-05T10:57:12.854Z,9.70
2018-09-05T10:58:13.882Z,10.30
2018-09-05T10:59:12.974Z,9.10
2018-09-05T11:00:13.006Z,9.40
2018-09-05T11:01:13.818Z,9.40
2018-09-05T11:02:13.016Z,10.20
2018-09-05T11:03:13.810Z,9.40
2018-09-05T11:04:13.065Z,10.40
2018-09-05T11:05:13.096Z,10.50
2018-09-05T11:06:13.059Z,9.90
2018-09-05T11:07:13.127Z,10.20
2018-09-05T11:08:13.341Z,10.00
2018-09-05T11:09:13.144Z,9.80
2018-09-05T11:10:13.157Z,8.60
2018-09-05T11:11:13.310Z,9.70
2018-09-05T11:12:13.226Z,9.30
2018-09-05T11:13:13.212Z,10.90
2018-09-05T11:14:13.264Z,10.30
2018-09-05T11:15:13.282Z,10.60
2018-09-05T11:16:13.219Z,9.70
2018-09-05T11:17:13.297Z,9.90
2018-09-05T11:18:13.227Z,9.90
2018-09-05T11:19:13.265Z,10.30
2018-09-05T11:20:13.317Z,10.70
2018-09-05T11:21:13.501Z,12.00
2018-09-05T11:22:13.381Z,10.60
2018-09-05T11:23:14.315Z,11.10
2018-09-05T11:24:13.361Z,10.30
2018-09-05T11:25:13.819Z,43.70
2018-09-05T11:26:13.393Z,9.90
2018-09-05T11:27:13.389Z,11.40
2018-09-05T11:28:13.610Z,11.10
2018-09-05T11:29:13.558Z,11.00
2018-09-05T11:30:13.537Z,10.90
2018-09-05T11:31:13.520Z,9.80
2018-09-05T11:32:14.878Z,10.40
2018-09-05T11:33:13.776Z,10.40
2018-09-05T11:34:13.629Z,10.00
2018-09-05T11:35:13.552Z,10.90
2018-09-05T11:36:13.580Z,11.10
2018-09-05T11:37:13.540Z,11.20
2018-09-05T11:38:13.510Z,10.90
2018-09-05T11:39:13.541Z,11.40
2018-09-05T11:40:13.616Z,10.60
2018-09-05T11:41:13.572Z,11.50
2018-09-05T11:42:13.572Z,10.80
2018-09-05T11:43:13.678Z,11.20
2018-09-05T11:44:13.608Z,11.60
2018-09-05T11:45:13.642Z,19.60
2018-09-05T11:46:13.676Z,12.40
2018-09-05T11:47:13.733Z,10.20
2018-09-05T11:48:13.753Z,9.90
2018-09-05T11:49:14.339Z,10.10
2018-09-05T11:50:13.799Z,10.60
2018-09-05T11:51:13.789Z,10.50
2018-09-05T11:52:13.817Z,10.40
2018-09-05T11:53:13.898Z,10.50
2018-09-05T11:54:14.550Z,9.50
2018-09-05T11:55:13.861Z,9.90
2018-09-05T11:56:13.801Z,9.20
2018-09-05T11:57:13.832Z,9.90
2018-09-05T11:58:13.765Z,10.10
2018-09-05T11:59:13.770Z,10.30
2018-09-05T12:00:13.887Z,9.90
2018-09-05T12:01:13.823Z,9.20
2018-09-05T12:02:13.840Z,10.40
2018-09-05T12:03:13.836Z,12.30
2018-09-05T12:04:13.794Z,11.10
2018-09-05T12:05:14.016Z,9.30
2018-09-05T12:06:13.995Z,9.20
2018-09-05T12:07:14.612Z,9.20
2018-09-05T12:08:13.848Z,10.50
2018-09-05T12:09:13.892Z,10.10
2018-09-05T12:10:13.905Z,12.20
2018-09-05T12:11:14.061Z,9.20
2018-09-05T12:12:13.961Z,10.90
2018-09-05T12:13:14.053Z,10.30
2018-09-05T12:14:13.946Z,9.50
2018-09-05T12:15:14.895Z,9.70
2018-09-05T12:16:13.950Z,9.80
2018-09-05T12:17:35.038Z,9.50
2018-09-05T12:18:13.962Z,8.90
2018-09-05T12:19:13.971Z,9.40
2018-09-05T12:20:14.116Z,8.40
2018-09-05T12:21:13.960Z,9.30
2018-09-05T12:22:14.001Z,8.60
2018-09-05T12:23:13.973Z,8.70
2018-09-05T12:24:13.997Z,8.90
2018-09-05T12:25:15.839Z,8.90
2018-09-05T12:26:15.651Z,9.40
2018-09-05T12:27:14.327Z,9.50
2018-09-05T12:28:14.055Z,8.80
2018-09-05T12:29:14.056Z,8.20
2018-09-05T12:30:14.012Z,9.70
2018-09-05T12:31:14.042Z,9.60
2018-09-05T12:32:14.039Z,8.90
2018-09-05T12:33:14.244Z,7.90
2018-09-05T12:34:14.179Z,8.60
2018-09-05T12:35:18.716Z,9.90
2018-09-05T12:36:15.488Z,8.60
2018-09-05T12:37:14.388Z,8.10
2018-09-05T12:38:15.227Z,7.80
2018-09-05T12:39:35.326Z,7.80
2018-09-05T12:40:14.204Z,8.10
2018-09-05T12:41:14.215Z,7.40
2018-09-05T12:42:14.197Z,7.40
2018-09-05T12:43:14.139Z,9.60
2018-09-05T12:44:14.181Z,7.60
2018-09-05T12:45:14.152Z,7.30
2018-09-05T12:46:15.596Z,8.10
2018-09-05T12:47:14.178Z,7.80
2018-09-05T12:48:14.211Z,8.50
2018-09-05T12:49:14.220Z,10.20
2018-09-05T12:50:14.192Z,8.40
2018-09-05T12:51:14.324Z,7.90
2018-09-05T12:52:14.275Z,8.10
2018-09-05T12:53:14.214Z,7.90
2018-09-05T12:54:14.258Z,8.60
2018-09-05T12:55:14.221Z,8.20
2018-09-05T12:56:14.220Z,8.70
2018-09-05T12:57:14.240Z,7.80
2018-09-05T12:58:14.270Z,9.10
2018-09-05T12:59:14.325Z,7.50
2018-09-05T13:00:14.259Z,7.30
2018-09-05T13:01:14.281Z,8.00
2018-09-05T13:02:14.308Z,10.20
2018-09-05T13:03:14.347Z,7.90
2018-09-05T13:04:14.282Z,8.60
2018-09-05T13:05:14.394Z,7.50
2018-09-05T13:06:14.305Z,9.00
2018-09-05T13:07:14.319Z,8.40
2018-09-05T13:08:14.328Z,8.10